createdAt,value
2018-08-25T00:00:04.278Z,1011.71
2018-08-25T00:01:31.550Z,1011.70
2018-08-25T00:02:58.846Z,1011.71
2018-08-25T00:04:26.521Z,1011.68
2018-08-25T00:05:53.978Z,1011.67
2018-08-25T00:07:21.476Z,1011.66
2018-08-25T00:08:48.905Z,1011.66
2018-08-25T00:10:14.805Z,1011.64
2018-08-25T00:11:42.360Z,1011.66
2018-08-25T00:13:10.112Z,1011.68
2018-08-25T00:14:37.316Z,1011.67
2018-08-25T00:16:04.665Z,1011.65
2018-08-25T00:17:31.310Z,1011.62
2018-08-25T00:18:58.774Z,1011.60
2018-08-25T00:20:26.299Z,1011.61
2018-08-25T00:21:52.938Z,1011.66
2018-08-25T00:23:20.655Z,1011.70
2018-08-25T00:24:46.508Z,1011.72
2018-08-25T00:26:14.053Z,1011.72
2018-08-25T00:27:41.554Z,1011.70
2018-08-25T00:29:07.784Z,1011.69
2018-08-25T00:30:35.176Z,1011.67
2018-08-25T00:32:02.422Z,1011.64
2018-08-25T00:33:29.688Z,1011.61
2018-08-25T00:34:57.054Z,1011.58
2018-08-25T00:36:23.872Z,1011.60
2018-08-25T00:37:51.523Z,1011.59
2018-08-25T00:39:18.882Z,1011.59
2018-08-25T00:40:46.390Z,1011.61
2018-08-25T00:42:13.908Z,1011.62
2018-08-25T00:43:41.350Z,1011.67
2018-08-25T00:45:08.797Z,1011.68
2018-08-25T00:46:36.182Z,1011.69
2018-08-25T00:48:02.851Z,1011.69
2018-08-25T00:49:29.343Z,1011.66
2018-08-25T00:50:56.389Z,1011.67
2018-08-25T00:52:23.741Z,1011.68
2018-08-25T00:53:51.262Z,1011.68
2018-08-25T00:55:18.688Z,1011.67
2018-08-25T00:56:45.910Z,1011.64
2018-08-25T00:58:13.399Z,1011.58
2018-08-25T00:59:40.986Z,1011.56
2018-08-25T01:01:08.245Z,1011.55
2018-08-25T01:02:35.785Z,1011.56
2018-08-25T01:04:03.115Z,1011.59
2018-08-25T01:05:30.385Z,1011.58
2018-08-25T01:06:57.890Z,1011.53
2018-08-25T01:08:25.311Z,1011.56
2018-08-25T01:09:52.628Z,1011.54
2018-08-25T01:11:20.116Z,1011.56
2018-08-25T01:12:47.389Z,1011.53
2018-08-25T01:14:14.962Z,1011.53
2018-08-25T01:15:42.339Z,1011.54
2018-08-25T01:17:08.711Z,1011.57
2018-08-25T01:18:34.841Z,1011.57
2018-08-25T01:20:02.244Z,1011.58
2018-08-25T01:21:29.696Z,1011.57
2018-08-25T01:22:57.146Z,1011.57
2018-08-25T01:24:24.602Z,1011.57
2018-08-25T01:25:50.832Z,1011.58
2018-08-25T01:27:17.103Z,1011.61
2018-08-25T01:28:44.183Z,1011.61
2018-08-25T01:30:12.680Z,1011.59
2018-08-25T01:31:39.242Z,1011.58
2018-08-25T01:33:06.592Z,1011.60
2018-08-25T01:34:33.920Z,1011.63
2018-08-25T01:36:01.315Z,1011.65
2018-08-25T01:37:27.339Z,1011.66
2018-08-25T01:38:54.215Z,1011.66
2018-08-25T01:40:20.242Z,1011.65
2018-08-25T01:41:47.542Z,1011.65
2018-08-25T01:43:15.232Z,1011.61
2018-08-25T01:44:42.316Z,1011.62
2018-08-25T01:46:10.890Z,1011.61
2018-08-25T01:47:35.734Z,1011.63
2018-08-25T01:49:03.194Z,1011.61
2018-08-25T01:50:29.308Z,1011.59
2018-08-25T01:51:55.076Z,1011.56
2018-08-25T01:53:22.239Z,1011.55
2018-08-25T01:54:48.322Z,1011.53
2018-08-25T01:56:15.756Z,1011.54
2018-08-25T01:57:43.102Z,1011.54
2018-08-25T01:59:10.409Z,1011.54
2018-08-25T02:00:40.953Z,1011.53
2018-08-25T02:02:04.158Z,1011.56
2018-08-25T02:03:31.659Z,1011.55
2018-08-25T02:04:58.901Z,1011.54
2018-08-25T02:06:26.371Z,1011.54
2018-08-25T02:07:53.547Z,1011.55
2018-08-25T02:09:19.445Z,1011.51
2018-08-25T02:10:46.763Z,1011.53
2018-08-25T02:12:14.149Z,1011.52
2018-08-25T02:13:41.820Z,1011.51
2018-08-25T02:15:09.120Z,1011.50
2018-08-25T02:16:35.222Z,1011.49
2018-08-25T02:18:01.493Z,1011.51
2018-08-25T02:19:27.886Z,1011.51
2018-08-25T02:20:54.505Z,1011.48
2018-08-25T02:22:20.562Z,1011.46
2018-08-25T02:23:47.909Z,1011.44
2018-08-25T02:25:16.325Z,1011.44
2018-08-25T02:26:41.637Z,1011.42
2018-08-25T02:28:09.027Z,1011.41
2018-08-25T02:29:36.450Z,1011.40
2018-08-25T02:31:03.313Z,1011.40
2018-08-25T02:32:30.869Z,1011.38
2018-08-25T02:33:57.420Z,1011.40
2018-08-25T02:35:24.005Z,1011.40
2018-08-25T02:36:51.137Z,1011.39
2018-08-25T02:38:18.610Z,1011.39
2018-08-25T02:39:44.526Z,1011.37
2018-08-25T02:41:10.456Z,1011.38
2018-08-25T02:42:37.738Z,1011.38
2018-08-25T02:44:05.315Z,1011.37
2018-08-25T02:45:32.603Z,1011.37
2018-08-25T02:46:59.776Z,1011.38
2018-08-25T02:48:26.359Z,1011.38
2018-08-25T02:49:53.952Z,1011.37
2018-08-25T02:51:21.460Z,1011.39
2018-08-25T02:52:47.526Z,1011.36
2018-08-25T02:54:13.784Z,1011.35
2018-08-25T02:55:40.974Z,1011.30
2018-08-25T02:57:08.421Z,1011.31
2018-08-25T02:58:34.396Z,1011.28
2018-08-25T03:00:01.526Z,1011.28
2018-08-25T03:01:28.005Z,1011.28
2018-08-25T03:02:54.580Z,1011.28
2018-08-25T03:04:21.676Z,1011.27
2018-08-25T03:05:50.112Z,1011.28
2018-08-25T03:07:16.287Z,1011.27
2018-08-25T03:08:43.705Z,1011.29
2018-08-25T03:10:11.060Z,1011.30
2018-08-25T03:11:38.569Z,1011.29
2018-08-25T03:13:06.037Z,1011.28
2018-08-25T03:14:33.530Z,1011.27
2018-08-25T03:16:01.075Z,1011.26
2018-08-25T03:17:27.215Z,1011.26
2018-08-25T03:18:53.971Z,1011.24
2018-08-25T03:20:21.332Z,1011.25
2018-08-25T03:21:47.389Z,1011.23
2018-08-25T03:23:14.885Z,1011.25
2018-08-25T03:24:42.210Z,1011.25
2018-08-25T03:26:09.716Z,1011.29
2018-08-25T03:27:37.188Z,1011.30
2018-08-25T03:29:04.668Z,1011.31
2018-08-25T03:30:31.950Z,1011.29
2018-08-25T03:31:58.313Z,1011.31
2018-08-25T03:33:24.745Z,1011.32
2018-08-25T03:34:52.019Z,1011.32
2018-08-25T03:36:19.542Z,1011.29
2018-08-25T03:37:47.932Z,1011.29
2018-08-25T03:39:13.271Z,1011.32
2018-08-25T03:40:40.414Z,1011.31
2018-08-25T03:42:07.849Z,1011.31
2018-08-25T03:43:35.196Z,1011.30
2018-08-25T03:45:02.749Z,1011.31
2018-08-25T03:46:28.767Z,1011.31
2018-08-25T03:47:56.293Z,1011.30
2018-08-25T03:49:23.623Z,1011.29
2018-08-25T03:50:50.917Z,1011.28
2018-08-25T03:52:18.559Z,1011.28
2018-08-25T03:53:45.621Z,1011.27
2018-08-25T03:55:11.712Z,1011.25
2018-08-25T03:56:38.911Z,1011.24
2018-08-25T03:58:04.849Z,1011.24
2018-08-25T03:59:32.290Z,1011.21
2018-08-25T04:00:59.705Z,1011.18
2018-08-25T04:02:26.383Z,1011.15
2018-08-25T04:03:53.851Z,1011.14
2018-08-25T04:05:20.953Z,1011.14
2018-08-25T04:06:48.571Z,1011.15
2018-08-25T04:08:14.814Z,1011.16
2018-08-25T04:09:42.197Z,1011.18
2018-08-25T04:11:09.573Z,1011.19
2018-08-25T04:12:37.078Z,1011.21
2018-08-25T04:14:04.232Z,1011.20
2018-08-25T04:15:31.832Z,1011.20
2018-08-25T04:16:58.864Z,1011.21
2018-08-25T04:18:25.408Z,1011.20
2018-08-25T04:19:51.722Z,1011.18
2018-08-25T04:21:18.058Z,1011.13
2018-08-25T04:22:44.174Z,1011.13
2018-08-25T04:24:10.008Z,1011.17
2018-08-25T04:25:37.345Z,1011.21
2018-08-25T04:27:04.611Z,1011.24
2018-08-25T04:28:30.932Z,1011.27
2018-08-25T04:29:58.416Z,1011.29
2018-08-25T04:31:25.505Z,1011.29
2018-08-25T04:32:53.720Z,1011.29
2018-08-25T04:34:18.999Z,1011.24
2018-08-25T04:35:46.354Z,1011.22
2018-08-25T04:37:13.910Z,1011.22
2018-08-25T04:38:41.138Z,1011.21
2018-08-25T04:40:16.599Z,1011.25
2018-08-25T04:41:36.059Z,1011.28
2018-08-25T04:43:03.553Z,1011.34
2018-08-25T04:44:30.739Z,1011.35
2018-08-25T04:45:58.255Z,1011.38
2018-08-25T04:47:25.688Z,1011.35
2018-08-25T04:48:52.731Z,1011.31
2018-08-25T04:50:20.319Z,1011.32
2018-08-25T04:51:47.516Z,1011.31
2018-08-25T04:53:14.835Z,1011.31
2018-08-25T04:54:42.465Z,1011.32
2018-08-25T04:56:09.894Z,1011.30
2018-08-25T04:57:37.041Z,1011.30
2018-08-25T04:59:04.340Z,1011.29
2018-08-25T05:00:32.706Z,1011.27
2018-08-25T05:01:57.815Z,1011.25
2018-08-25T05:03:25.106Z,1011.22
2018-08-25T05:04:50.968Z,1011.23
2018-08-25T05:06:18.289Z,1011.22
2018-08-25T05:07:45.570Z,1011.21
2018-08-25T05:09:11.688Z,1011.20
2018-08-25T05:10:38.997Z,1011.21
2018-08-25T05:12:06.278Z,1011.18
2018-08-25T05:13:33.763Z,1011.18
2018-08-25T05:15:01.113Z,1011.18
2018-08-25T05:16:27.410Z,1011.19
2018-08-25T05:17:54.599Z,1011.20
2018-08-25T05:19:20.994Z,1011.19
2018-08-25T05:20:48.372Z,1011.18
2018-08-25T05:22:16.006Z,1011.19
2018-08-25T05:23:43.298Z,1011.20
2018-08-25T05:25:10.721Z,1011.21
2018-08-25T05:26:38.110Z,1011.22
2018-08-25T05:28:05.665Z,1011.27
2018-08-25T05:29:32.937Z,1011.28
2018-08-25T05:31:00.379Z,1011.30
2018-08-25T05:32:27.586Z,1011.28
2018-08-25T05:33:54.211Z,1011.29
2018-08-25T05:35:21.365Z,1011.25
2018-08-25T05:36:48.774Z,1011.24
2018-08-25T05:38:16.299Z,1011.24
2018-08-25T05:39:42.348Z,1011.25
2018-08-25T05:41:09.947Z,1011.25
2018-08-25T05:42:37.422Z,1011.27
2018-08-25T05:44:04.853Z,1011.27
2018-08-25T05:45:30.791Z,1011.25
2018-08-25T05:46:58.315Z,1011.26
2018-08-25T05:48:25.641Z,1011.27
2018-08-25T05:49:52.779Z,1011.29
2018-08-25T05:51:20.275Z,1011.28
2018-08-25T05:52:46.573Z,1011.31
2018-08-25T05:54:15.186Z,1011.30
2018-08-25T05:55:41.365Z,1011.29
2018-08-25T05:57:07.838Z,1011.26
2018-08-25T05:58:35.213Z,1011.25
2018-08-25T06:00:02.630Z,1011.25
2018-08-25T06:01:30.004Z,1011.22
2018-08-25T06:02:58.492Z,1011.22
2018-08-25T06:04:24.358Z,1011.25
2018-08-25T06:05:51.540Z,1011.25
2018-08-25T06:07:17.956Z,1011.26
2018-08-25T06:08:45.496Z,1011.24
2018-08-25T06:10:12.799Z,1011.25
2018-08-25T06:11:40.429Z,1011.24
2018-08-25T06:13:06.652Z,1011.23
2018-08-25T06:14:33.988Z,1011.21
2018-08-25T06:16:01.610Z,1011.19
2018-08-25T06:17:28.763Z,1011.16
2018-08-25T06:18:55.820Z,1011.12
2018-08-25T06:20:23.241Z,1011.07
2018-08-25T06:21:50.476Z,1011.06
2018-08-25T06:23:17.897Z,1011.04
2018-08-25T06:24:45.291Z,1011.00
2018-08-25T06:26:12.824Z,1010.96
2018-08-25T06:27:39.662Z,1010.93
2018-08-25T06:29:06.851Z,1010.95
2018-08-25T06:30:34.234Z,1010.95
2018-08-25T06:32:01.531Z,1010.97
2018-08-25T06:33:29.135Z,1010.94
2018-08-25T06:34:56.446Z,1010.93
2018-08-25T06:36:23.824Z,1010.94
2018-08-25T06:37:51.316Z,1010.93
2018-08-25T06:39:18.691Z,1010.92
2018-08-25T06:40:45.079Z,1010.91
2018-08-25T06:42:12.401Z,1010.90
2018-08-25T06:43:40.012Z,1010.90
2018-08-25T06:45:07.546Z,1010.88
2018-08-25T06:46:34.243Z,1010.87
2018-08-25T06:49:26.716Z,1010.86
2018-08-25T06:50:53.611Z,1010.81
2018-08-25T06:52:24.181Z,1010.80
2018-08-25T06:53:47.328Z,1010.79
2018-08-25T06:55:14.768Z,1010.76
2018-08-25T06:58:09.426Z,1010.71
2018-08-25T06:59:36.092Z,1010.64
2018-08-25T07:01:03.162Z,1010.64
2018-08-25T07:02:30.676Z,1010.62
2018-08-25T07:03:58.220Z,1010.64
2018-08-25T07:05:25.571Z,1010.64
2018-08-25T07:06:55.668Z,1010.63
2018-08-25T07:08:18.832Z,1010.62
2018-08-25T07:09:46.431Z,1010.63
2018-08-25T07:11:13.790Z,1010.66
2018-08-25T07:12:41.453Z,1010.68
2018-08-25T07:14:08.741Z,1010.68
2018-08-25T07:15:36.251Z,1010.67
2018-08-25T07:17:02.555Z,1010.67
2018-08-25T07:18:29.994Z,1010.67
2018-08-25T07:19:57.478Z,1010.63
2018-08-25T07:21:24.980Z,1010.63
2018-08-25T07:22:52.292Z,1010.62
2018-08-25T07:24:19.759Z,1010.62
2018-08-25T07:25:46.357Z,1010.61
2018-08-25T07:27:13.797Z,1010.65
2018-08-25T07:28:41.198Z,1010.61
2018-08-25T07:30:08.702Z,1010.56
2018-08-25T07:31:36.202Z,1010.54
2018-08-25T07:33:03.673Z,1010.53
2018-08-25T07:34:30.191Z,1010.51
2018-08-25T07:35:57.665Z,1010.47
2018-08-25T07:37:24.373Z,1010.46
2018-08-25T07:38:51.496Z,1010.47
2018-08-25T07:40:19.105Z,1010.47
2018-08-25T07:41:47.523Z,1010.48
2018-08-25T07:43:13.043Z,1010.49
2018-08-25T07:44:40.587Z,1010.49
2018-08-25T07:46:08.134Z,1010.46
2018-08-25T07:47:35.461Z,1010.43
2018-08-25T07:49:03.200Z,1010.43
2018-08-25T07:50:30.397Z,1010.45
2018-08-25T07:51:57.833Z,1010.42
2018-08-25T07:53:25.501Z,1010.39
2018-08-25T07:54:52.470Z,1010.38
2018-08-25T07:56:19.889Z,1010.37
2018-08-25T07:57:46.066Z,1010.34
2018-08-25T07:59:12.795Z,1010.33
2018-08-25T08:00:40.193Z,1010.33
2018-08-25T08:02:07.501Z,1010.31
2018-08-25T08:03:34.028Z,1010.24
2018-08-25T08:05:01.199Z,1010.24
2018-08-25T08:06:28.606Z,1010.20
2018-08-25T08:07:55.824Z,1010.20
2018-08-25T08:09:23.028Z,1010.18
2018-08-25T08:10:50.548Z,1010.15
2018-08-25T08:12:18.004Z,1010.14
2018-08-25T08:13:45.302Z,1010.10
2018-08-25T08:15:12.770Z,1010.11
2018-08-25T08:16:40.379Z,1010.06
2018-08-25T08:18:07.786Z,1010.07
2018-08-25T08:19:33.944Z,1010.04
2018-08-25T08:21:01.435Z,1010.07
2018-08-25T08:22:29.007Z,1010.03
2018-08-25T08:23:56.524Z,1010.02
2018-08-25T08:25:23.099Z,1010.02
2018-08-25T08:26:50.504Z,1010.01
2018-08-25T08:28:17.907Z,1009.95
2018-08-25T08:29:44.583Z,1009.91
2018-08-25T08:31:12.055Z,1009.97
2018-08-25T08:32:38.668Z,1009.97
2018-08-25T08:34:05.875Z,1009.95
2018-08-25T08:35:33.595Z,1009.98
2018-08-25T08:37:00.758Z,1009.99
2018-08-25T08:38:28.060Z,1009.96
2018-08-25T08:39:55.708Z,1009.98
2018-08-25T08:41:22.603Z,1009.98
2018-08-25T08:42:50.181Z,1009.99
2018-08-25T08:44:17.599Z,1009.95
2018-08-25T08:45:44.408Z,1009.94
2018-08-25T08:47:12.064Z,1009.94
2018-08-25T08:48:39.488Z,1009.95
2018-08-25T08:50:07.037Z,1009.99
2018-08-25T08:51:34.446Z,1009.99
2018-08-25T08:53:01.937Z,1010.00
2018-08-25T08:54:29.538Z,1009.97
2018-08-25T08:55:56.625Z,1009.95
2018-08-25T08:57:23.954Z,1009.97
2018-08-25T08:58:51.766Z,1009.99
2018-08-25T09:00:18.520Z,1009.99
2018-08-25T09:01:46.009Z,1010.03
2018-08-25T09:03:13.251Z,1010.04
2018-08-25T09:04:40.663Z,1010.02
2018-08-25T09:06:08.099Z,1010.06
2018-08-25T09:07:35.604Z,1010.03
2018-08-25T09:09:02.793Z,1010.03
2018-08-25T09:10:30.219Z,1010.07
2018-08-25T09:11:57.890Z,1010.05
2018-08-25T09:13:25.336Z,1010.04
2018-08-25T09:14:51.892Z,1010.06
2018-08-25T09:16:19.278Z,1010.07
2018-08-25T09:17:46.791Z,1010.07
2018-08-25T09:19:13.561Z,1010.08
2018-08-25T09:20:40.685Z,1010.07
2018-08-25T09:22:07.383Z,1010.07
2018-08-25T09:23:33.824Z,1010.01
2018-08-25T09:25:00.960Z,1010.01
2018-08-25T09:26:28.561Z,1010.02
2018-08-25T09:27:55.414Z,1010.02
2018-08-25T09:29:22.843Z,1009.97
2018-08-25T09:30:50.307Z,1009.93
2018-08-25T09:32:18.035Z,1009.90
2018-08-25T09:33:45.495Z,1009.89
2018-08-25T09:35:13.134Z,1009.88
2018-08-25T09:36:40.769Z,1009.88
2018-08-25T09:38:08.068Z,1009.91
2018-08-25T09:39:35.373Z,1009.85
2018-08-25T09:41:02.105Z,1009.89
2018-08-25T09:42:29.298Z,1009.88
2018-08-25T09:43:56.370Z,1009.86
2018-08-25T09:45:25.743Z,1009.89
2018-08-25T09:46:50.863Z,1009.88
2018-08-25T09:48:17.006Z,1009.89
2018-08-25T09:49:44.553Z,1009.86
2018-08-25T09:51:11.085Z,1009.88
2018-08-25T09:52:38.623Z,1009.86
2018-08-25T09:54:06.153Z,1009.84
2018-08-25T09:55:33.603Z,1009.84
2018-08-25T09:57:01.069Z,1009.85
2018-08-25T09:58:28.682Z,1009.85
2018-08-25T09:59:55.988Z,1009.82
2018-08-25T10:01:22.837Z,1009.79
2018-08-25T10:02:50.168Z,1009.81
2018-08-25T10:04:17.702Z,1009.79
2018-08-25T10:05:45.403Z,1009.74
2018-08-25T10:07:11.830Z,1009.73
2018-08-25T10:08:38.120Z,1009.73
2018-08-25T10:10:05.762Z,1009.69
2018-08-25T10:11:33.338Z,1009.68
2018-08-25T10:13:00.723Z,1009.64
2018-08-25T10:14:28.113Z,1009.59
2018-08-25T10:15:55.351Z,1009.61
2018-08-25T10:17:22.946Z,1009.56
2018-08-25T10:18:50.287Z,1009.54
2018-08-25T10:20:17.870Z,1009.56
2018-08-25T10:21:45.274Z,1009.53
2018-08-25T10:23:12.780Z,1009.50
2018-08-25T10:24:39.574Z,1009.44
2018-08-25T10:26:06.571Z,1009.42
2018-08-25T10:27:33.451Z,1009.40
2018-08-25T10:29:00.016Z,1009.41
2018-08-25T10:30:27.510Z,1009.39
2018-08-25T10:31:55.001Z,1009.37
2018-08-25T10:33:22.050Z,1009.34
2018-08-25T10:34:49.520Z,1009.27
2018-08-25T10:36:16.937Z,1009.24
2018-08-25T10:37:44.623Z,1009.22
2018-08-25T10:39:12.122Z,1009.19
2018-08-25T10:40:38.973Z,1009.12
2018-08-25T10:42:06.436Z,1009.14
2018-08-25T10:43:34.027Z,1009.08
2018-08-25T10:45:01.479Z,1009.05
2018-08-25T10:46:28.875Z,1009.01
2018-08-25T10:47:56.345Z,1008.96
2018-08-25T10:49:23.763Z,1008.97
2018-08-25T10:50:51.174Z,1008.93
2018-08-25T10:52:18.915Z,1008.92
2018-08-25T10:53:46.515Z,1008.91
2018-08-25T10:55:14.092Z,1008.93
2018-08-25T10:56:41.421Z,1008.92
2018-08-25T10:58:09.004Z,1008.88
2018-08-25T10:59:36.489Z,1008.87
2018-08-25T11:01:03.130Z,1008.86
2018-08-25T11:02:30.220Z,1008.87
2018-08-25T11:03:57.611Z,1008.85
2018-08-25T11:05:24.812Z,1008.80
2018-08-25T11:06:51.590Z,1008.83
2018-08-25T11:08:18.852Z,1008.83
2018-08-25T11:09:46.486Z,1008.81
2018-08-25T11:11:14.022Z,1008.79
2018-08-25T11:12:40.500Z,1008.80
2018-08-25T11:14:07.404Z,1008.79
2018-08-25T11:15:33.960Z,1008.71
2018-08-25T11:17:01.456Z,1008.71
2018-08-25T11:18:28.879Z,1008.71
2018-08-25T11:19:55.948Z,1008.70
2018-08-25T11:21:23.350Z,1008.71
2018-08-25T11:22:50.393Z,1008.68
2018-08-25T11:24:18.124Z,1008.70
2018-08-25T11:25:45.427Z,1008.71
2018-08-25T11:27:12.075Z,1008.69
2018-08-25T11:28:38.784Z,1008.72
2018-08-25T11:30:06.260Z,1008.74
2018-08-25T11:31:33.729Z,1008.70
2018-08-25T11:33:01.299Z,1008.70
2018-08-25T11:34:28.821Z,1008.73
2018-08-25T11:35:56.248Z,1008.75
2018-08-25T11:37:23.880Z,1008.82
2018-08-25T11:38:51.269Z,1008.91
2018-08-25T11:40:17.641Z,1009.10
2018-08-25T11:41:45.106Z,1009.35
2018-08-25T11:43:12.421Z,1009.66
2018-08-25T11:44:40.051Z,1009.88
2018-08-25T11:46:07.339Z,1009.98
2018-08-25T11:47:34.762Z,1010.01
2018-08-25T11:49:02.262Z,1009.96
2018-08-25T11:50:29.660Z,1009.99
2018-08-25T11:51:57.113Z,1009.93
2018-08-25T11:53:24.562Z,1009.91
2018-08-25T11:54:51.707Z,1009.90
2018-08-25T11:56:19.097Z,1009.88
2018-08-25T11:58:54.488Z,1009.88
2018-08-25T12:25:42.886Z,1009.73
2018-08-25T12:34:44.453Z,1009.71
2018-08-25T12:41:11.613Z,1009.56
2018-08-25T12:42:37.140Z,1009.53
2018-08-25T12:44:03.382Z,1009.46
2018-08-25T12:45:30.803Z,1009.45
2018-08-25T12:46:58.207Z,1009.46
2018-08-25T12:48:25.436Z,1009.44
2018-08-25T12:49:52.854Z,1009.39
2018-08-25T12:51:20.108Z,1009.39
2018-08-25T12:52:47.750Z,1009.42
2018-08-25T12:54:15.137Z,1009.41
2018-08-25T12:55:42.702Z,1009.39
2018-08-25T12:57:10.257Z,1009.39
2018-08-25T12:58:37.613Z,1009.42
2018-08-25T13:00:04.547Z,1009.47
2018-08-25T13:01:31.952Z,1009.45
2018-08-25T13:02:59.440Z,1009.46
2018-08-25T13:04:26.854Z,1009.47
2018-08-25T13:05:54.210Z,1009.47
2018-08-25T13:07:21.215Z,1009.46
2018-08-25T13:08:48.377Z,1009.42
2018-08-25T13:10:14.978Z,1009.43
2018-08-25T13:11:42.303Z,1009.37
2018-08-25T13:13:10.024Z,1009.40
2018-08-25T13:14:37.229Z,1009.39
2018-08-25T13:16:04.643Z,1009.33
2018-08-25T13:17:32.098Z,1009.34
2018-08-25T13:18:59.404Z,1009.30
2018-08-25T13:20:26.531Z,1009.25
2018-08-25T13:21:54.241Z,1009.28
2018-08-25T13:23:21.095Z,1009.34
2018-08-25T13:24:48.567Z,1009.33
2018-08-25T13:26:16.111Z,1009.36
2018-08-25T13:27:43.677Z,1009.30
2018-08-25T13:29:10.680Z,1009.38
2018-08-25T13:30:37.717Z,1009.39
2018-08-25T13:32:08.227Z,1009.41
2018-08-25T13:33:32.713Z,1009.46
2018-08-25T13:35:00.226Z,1009.46
2018-08-25T13:36:27.687Z,1009.41
2018-08-25T13:37:54.873Z,1009.44
2018-08-25T13:39:21.853Z,1009.44
2018-08-25T13:40:49.467Z,1009.42
2018-08-25T13:42:16.825Z,1009.34
2018-08-25T13:43:44.503Z,1009.29
2018-08-25T13:45:11.885Z,1009.33
2018-08-25T13:46:39.482Z,1009.33
2018-08-25T13:48:06.766Z,1009.31
2018-08-25T13:49:34.421Z,1009.33
2018-08-25T13:51:01.685Z,1009.30
2018-08-25T13:52:29.236Z,1009.30
2018-08-25T13:53:56.556Z,1009.28
2018-08-25T13:55:23.929Z,1009.27
2018-08-25T13:56:51.449Z,1009.24
2018-08-25T13:58:19.034Z,1009.33
2018-08-25T13:59:46.454Z,1009.32
2018-08-25T14:01:13.913Z,1009.33
2018-08-25T14:02:41.459Z,1009.31
2018-08-25T14:04:08.891Z,1009.33
2018-08-25T14:05:36.364Z,1009.34
2018-08-25T14:07:03.912Z,1009.35
2018-08-25T14:08:31.295Z,1009.40
2018-08-25T14:09:58.546Z,1009.39
2018-08-25T14:11:25.729Z,1009.41
2018-08-25T14:12:53.108Z,1009.46
2018-08-25T14:14:20.503Z,1009.54
2018-08-25T14:15:47.953Z,1009.59
2018-08-25T14:17:16.294Z,1009.58
2018-08-25T14:18:41.734Z,1009.61
2018-08-25T14:20:09.031Z,1009.58
2018-08-25T14:21:36.513Z,1009.55
2018-08-25T14:23:03.906Z,1009.62
2018-08-25T14:24:30.700Z,1009.58
2018-08-25T14:25:57.871Z,1009.58
2018-08-25T14:27:25.550Z,1009.59
2018-08-25T14:28:52.527Z,1009.57
2018-08-25T14:30:19.902Z,1009.58
2018-08-25T14:31:47.226Z,1009.62
2018-08-25T14:33:14.799Z,1009.59
2018-08-25T14:34:41.573Z,1009.59
2018-08-25T14:36:09.227Z,1009.58
2018-08-25T14:37:35.595Z,1009.55
2018-08-25T14:39:03.105Z,1009.53
2018-08-25T14:40:30.516Z,1009.53
2018-08-25T14:41:57.070Z,1009.48
2018-08-25T14:43:24.624Z,1009.47
2018-08-25T14:44:51.358Z,1009.41
2018-08-25T14:46:18.772Z,1009.39
2018-08-25T14:47:46.249Z,1009.42
2018-08-25T14:49:13.807Z,1009.44
2018-08-25T14:50:41.228Z,1009.43
2018-08-25T14:52:08.702Z,1009.43
2018-08-25T14:53:36.121Z,1009.42
2018-08-25T14:55:03.503Z,1009.42
2018-08-25T14:56:30.953Z,1009.39
2018-08-25T14:57:57.576Z,1009.42
2018-08-25T14:59:24.787Z,1009.39
2018-08-25T15:00:51.944Z,1009.37
2018-08-25T15:02:19.275Z,1009.38
2018-08-25T15:03:46.820Z,1009.40
2018-08-25T15:05:14.171Z,1009.41
2018-08-25T15:06:41.641Z,1009.42
2018-08-25T15:08:08.555Z,1009.39
2018-08-25T15:09:36.110Z,1009.43
2018-08-25T15:11:03.571Z,1009.44
2018-08-25T15:12:30.995Z,1009.46
2018-08-25T15:13:58.622Z,1009.47
2018-08-25T15:15:26.119Z,1009.47
2018-08-25T15:16:52.777Z,1009.52
2018-08-25T15:18:20.038Z,1009.55
2018-08-25T15:19:47.452Z,1009.56
2018-08-25T15:21:14.273Z,1009.59
2018-08-25T15:22:40.673Z,1009.63
2018-08-25T15:24:08.070Z,1009.62
2018-08-25T15:25:35.158Z,1009.64
2018-08-25T15:27:01.885Z,1009.69
2018-08-25T15:28:29.051Z,1009.70
2018-08-25T15:29:56.443Z,1009.72
2018-08-25T15:31:23.806Z,1009.80
2018-08-25T15:32:51.151Z,1009.77
2018-08-25T15:34:18.503Z,1009.84
2018-08-25T15:35:45.947Z,1009.83
2018-08-25T15:37:13.371Z,1009.88
2018-08-25T15:38:40.887Z,1009.96
2018-08-25T15:40:07.453Z,1010.07
2018-08-25T15:41:34.883Z,1010.09
2018-08-25T15:43:02.164Z,1010.14
2018-08-25T15:44:29.527Z,1010.13
2018-08-25T15:45:56.969Z,1010.18
2018-08-25T15:47:24.351Z,1010.28
2018-08-25T15:48:51.458Z,1010.29
2018-08-25T15:50:18.958Z,1010.33
2018-08-25T15:51:46.191Z,1010.31
2018-08-25T15:53:13.644Z,1010.33
2018-08-25T15:54:41.083Z,1010.34
2018-08-25T15:56:08.452Z,1010.33
2018-08-25T15:57:35.772Z,1010.27
2018-08-25T15:59:03.331Z,1010.35
2018-08-25T16:00:30.862Z,1010.32
2018-08-25T16:01:57.991Z,1010.30
2018-08-25T16:03:25.372Z,1010.29
2018-08-25T16:04:52.678Z,1010.30
2018-08-25T16:06:20.338Z,1010.31
2018-08-25T16:07:46.727Z,1010.30
2018-08-25T16:09:13.417Z,1010.32
2018-08-25T16:10:40.863Z,1010.35
2018-08-25T16:12:07.716Z,1010.35
2018-08-25T16:13:37.935Z,1010.35
2018-08-25T16:15:01.649Z,1010.37
2018-08-25T16:16:28.695Z,1010.36
2018-08-25T16:17:55.925Z,1010.39
2018-08-25T16:19:22.938Z,1010.38
2018-08-25T16:20:50.417Z,1010.38
2018-08-25T16:22:17.826Z,1010.36
2018-08-25T16:23:45.117Z,1010.39
2018-08-25T16:25:12.046Z,1010.35
2018-08-25T16:26:39.276Z,1010.37
2018-08-25T16:28:05.946Z,1010.38
2018-08-25T16:29:33.330Z,1010.37
2018-08-25T16:31:00.777Z,1010.35
2018-08-25T16:32:27.898Z,1010.34
2018-08-25T16:33:54.519Z,1010.35
2018-08-25T16:35:21.814Z,1010.33
2018-08-25T16:36:50.128Z,1010.36
2018-08-25T16:38:16.634Z,1010.39
2018-08-25T16:39:43.032Z,1010.41
2018-08-25T16:41:10.219Z,1010.40
2018-08-25T16:42:37.737Z,1010.37
2018-08-25T16:44:04.954Z,1010.38
2018-08-25T16:45:31.339Z,1010.40
2018-08-25T16:46:58.746Z,1010.39
2018-08-25T16:48:26.084Z,1010.36
2018-08-25T16:49:53.507Z,1010.34
2018-08-25T16:51:21.097Z,1010.34
2018-08-25T16:52:47.688Z,1010.36
2018-08-25T16:54:13.920Z,1010.36
2018-08-25T16:55:40.648Z,1010.38
2018-08-25T16:57:07.983Z,1010.40
2018-08-25T16:58:34.523Z,1010.43
2018-08-25T17:00:01.816Z,1010.44
2018-08-25T17:01:29.292Z,1010.40
2018-08-25T17:02:56.713Z,1010.42
2018-08-25T17:04:24.316Z,1010.42
2018-08-25T17:05:51.007Z,1010.42
2018-08-25T17:07:17.380Z,1010.43
2018-08-25T17:08:44.760Z,1010.42
2018-08-25T17:10:12.381Z,1010.46
2018-08-25T17:11:39.821Z,1010.47
2018-08-25T17:13:07.228Z,1010.46
2018-08-25T17:14:34.450Z,1010.48
2018-08-25T17:16:00.981Z,1010.51
2018-08-25T17:17:27.569Z,1010.50
2018-08-25T17:18:54.569Z,1010.51
2018-08-25T17:20:21.133Z,1010.52
2018-08-25T17:21:48.452Z,1010.52
2018-08-25T17:23:16.065Z,1010.53
2018-08-25T17:24:42.534Z,1010.58
2018-08-25T17:26:09.998Z,1010.55
2018-08-25T17:27:36.737Z,1010.58
2018-08-25T17:29:04.175Z,1010.59
2018-08-25T17:30:31.668Z,1010.61
2018-08-25T17:31:59.218Z,1010.59
2018-08-25T17:33:26.422Z,1010.62
2018-08-25T17:34:53.790Z,1010.62
2018-08-25T17:36:21.167Z,1010.66
2018-08-25T17:37:48.552Z,1010.66
2018-08-25T17:39:16.014Z,1010.68
2018-08-25T17:40:43.386Z,1010.70
2018-08-25T17:42:10.955Z,1010.69
2018-08-25T17:43:38.338Z,1010.69
2018-08-25T17:45:05.108Z,1010.71
2018-08-25T17:46:32.524Z,1010.74
2018-08-25T17:47:59.524Z,1010.75
2018-08-25T17:49:26.829Z,1010.77
2018-08-25T17:50:54.449Z,1010.76
2018-08-25T17:52:21.534Z,1010.75
2018-08-25T17:53:48.939Z,1010.79
2018-08-25T17:55:16.265Z,1010.80
2018-08-25T17:56:43.977Z,1010.83
2018-08-25T17:58:11.406Z,1010.84
2018-08-25T17:59:38.668Z,1010.86
2018-08-25T18:01:05.047Z,1010.88
2018-08-25T18:02:31.790Z,1010.89
2018-08-25T18:03:59.377Z,1010.95
2018-08-25T18:05:25.668Z,1011.00
2018-08-25T18:06:52.577Z,1011.01
2018-08-25T18:08:20.049Z,1011.04
2018-08-25T18:09:47.439Z,1011.04
2018-08-25T18:11:15.087Z,1011.07
2018-08-25T18:12:41.318Z,1011.12
2018-08-25T18:14:08.847Z,1011.19
2018-08-25T18:15:35.122Z,1011.17